createdAt,value
2018-05-12T00:00:17.017Z,15.70
2018-05-12T00:02:46.625Z,15.60
2018-05-12T00:05:15.817Z,15.50
2018-05-12T00:07:45.326Z,15.50
2018-05-12T00:10:14.813Z,15.50
2018-05-12T00:12:43.537Z,15.50
2018-05-12T00:15:13.009Z,15.50
2018-05-12T00:17:41.764Z,15.50
2018-05-12T00:20:10.484Z,15.40
2018-05-12T00:22:38.857Z,15.40
2018-05-12T00:25:07.581Z,15.30
2018-05-12T00:27:36.821Z,15.20
2018-05-12T00:30:04.881Z,15.20
2018-05-12T00:32:33.274Z,15.20
2018-05-12T00:35:02.768Z,15.10
2018-05-12T00:37:31.481Z,15.10
2018-05-12T00:39:59.981Z,15.10
2018-05-12T00:42:28.681Z,15.10
2018-05-12T00:44:58.158Z,15.00
2018-05-12T00:47:26.879Z,15.00
2018-05-12T00:49:56.038Z,15.10
2018-05-12T00:52:24.760Z,15.00
2018-05-12T00:54:53.468Z,15.00
2018-05-12T00:57:22.630Z,14.90
2018-05-12T00:59:51.328Z,14.90
2018-05-12T01:02:20.044Z,14.90
2018-05-12T01:04:48.745Z,15.00
2018-05-12T01:07:17.457Z,15.00
2018-05-12T01:09:46.157Z,15.00
2018-05-12T01:12:14.869Z,15.00
2018-05-12T01:14:43.232Z,14.90
2018-05-12T01:17:11.982Z,14.90
2018-05-12T01:19:40.709Z,14.80
2018-05-12T01:22:09.426Z,14.80
2018-05-12T01:24:38.693Z,14.80
2018-05-12T01:27:07.426Z,14.80
2018-05-12T01:29:35.801Z,14.80
2018-05-12T01:32:03.865Z,14.80
2018-05-12T01:34:33.332Z,14.70
2018-05-12T01:37:02.098Z,14.70
2018-05-12T01:39:30.836Z,14.60
2018-05-12T01:41:59.564Z,14.60
2018-05-12T01:44:29.041Z,14.50
2018-05-12T01:46:58.530Z,14.50
2018-05-12T01:49:27.242Z,14.50
2018-05-12T01:51:56.725Z,14.50
2018-05-12T01:54:26.211Z,14.40
2018-05-12T01:56:55.657Z,14.40
2018-05-12T01:59:25.134Z,14.30
2018-05-12T02:01:53.536Z,14.30
2018-05-12T02:04:23.017Z,14.20
2018-05-12T02:06:51.757Z,14.20
2018-05-12T02:09:20.470Z,14.20
2018-05-12T02:11:49.177Z,14.20
2018-05-12T02:14:17.904Z,14.20
2018-05-12T02:16:46.626Z,14.20
2018-05-12T02:19:15.356Z,14.20
2018-05-12T02:21:44.854Z,14.20
2018-05-12T02:24:13.573Z,14.10
2018-05-12T02:26:42.291Z,14.20
2018-05-12T02:29:11.344Z,14.20
2018-05-12T02:31:40.861Z,14.20
2018-05-12T02:34:09.574Z,14.20
2018-05-12T02:36:38.285Z,14.30
2018-05-12T02:39:06.677Z,14.30
2018-05-12T02:41:35.413Z,14.30
2018-05-12T02:44:04.156Z,14.30
2018-05-12T02:46:32.869Z,14.20
2018-05-12T02:49:02.341Z,14.30
2018-05-12T02:51:31.057Z,14.30
2018-05-12T02:54:00.534Z,14.30
2018-05-12T02:56:29.302Z,14.30
2018-05-12T02:58:58.017Z,14.40
2018-05-12T03:01:26.734Z,14.40
2018-05-12T03:03:55.491Z,14.40
2018-05-12T03:06:24.197Z,14.40
2018-05-12T03:08:53.689Z,14.30
2018-05-12T03:11:22.116Z,14.30
2018-05-12T03:13:50.844Z,14.30
2018-05-12T03:16:19.580Z,14.30
2018-05-12T03:18:48.291Z,14.30
2018-05-12T03:21:17.026Z,14.30
2018-05-12T03:23:45.738Z,14.30
2018-05-12T03:26:15.213Z,14.20
2018-05-12T03:28:43.955Z,14.20
2018-05-12T03:31:12.332Z,14.20
2018-05-12T03:33:41.075Z,14.30
2018-05-12T03:36:10.740Z,14.20
2018-05-12T03:38:39.662Z,14.10
2018-05-12T03:41:08.068Z,14.20
2018-05-12T03:43:37.550Z,14.20
2018-05-12T03:46:05.626Z,14.20
2018-05-12T03:48:34.338Z,14.10
2018-05-12T03:51:03.074Z,14.10
2018-05-12T03:53:31.814Z,14.10
2018-05-12T03:56:01.299Z,14.00
2018-05-12T03:58:30.039Z,14.00
2018-05-12T04:00:58.751Z,14.00
2018-05-12T04:03:27.479Z,14.00
2018-05-12T04:06:07.331Z,13.90
2018-05-12T04:08:47.942Z,13.90
2018-05-12T04:11:27.817Z,13.90
2018-05-12T04:13:56.529Z,13.90
2018-05-12T04:16:25.245Z,13.80
2018-05-12T04:18:55.357Z,13.80
2018-05-12T04:21:24.870Z,13.80
2018-05-12T04:23:53.580Z,13.80
2018-05-12T04:26:22.281Z,13.80
2018-05-12T04:28:50.672Z,13.80
2018-05-12T04:31:19.397Z,13.90
2018-05-12T04:33:48.900Z,13.90
2018-05-12T04:36:18.381Z,13.80
2018-05-12T04:38:47.422Z,13.80
2018-05-12T04:41:16.183Z,13.90
2018-05-12T04:43:44.894Z,13.90
2018-05-12T04:46:14.421Z,13.90
2018-05-12T04:48:43.137Z,13.90
2018-05-12T04:51:11.850Z,14.00
2018-05-12T04:53:40.583Z,14.00
2018-05-12T04:56:09.292Z,14.10
2018-05-12T04:58:38.022Z,14.20
2018-05-12T05:01:07.494Z,14.30
2018-05-12T05:03:36.197Z,14.30
2018-05-12T05:06:04.599Z,14.40
2018-05-12T05:08:34.082Z,14.40
2018-05-12T05:11:02.807Z,14.30
2018-05-12T05:13:32.304Z,14.50
2018-05-12T05:16:01.548Z,14.60
2018-05-12T05:18:30.289Z,14.60
2018-05-12T05:20:59.761Z,14.70
2018-05-12T05:23:28.493Z,14.70
2018-05-12T05:25:57.200Z,14.80
2018-05-12T05:28:25.918Z,14.90
2018-05-12T05:30:53.977Z,14.90
2018-05-12T05:33:22.344Z,15.00
2018-05-12T05:35:51.097Z,15.10
2018-05-12T05:38:20.586Z,15.20
2018-05-12T05:40:49.305Z,15.10
2018-05-12T05:43:17.693Z,15.20
2018-05-12T05:45:46.411Z,15.30
2018-05-12T05:48:15.174Z,15.30
2018-05-12T05:50:43.573Z,15.40
2018-05-12T05:53:12.280Z,15.40
2018-05-12T05:55:40.673Z,15.50
2018-05-12T05:58:09.391Z,15.60
2018-05-12T06:00:38.141Z,15.60
2018-05-12T06:03:06.847Z,15.60
2018-05-12T06:05:36.324Z,15.80
2018-05-12T06:08:05.048Z,15.70
2018-05-12T06:10:34.525Z,15.80
2018-05-12T06:13:03.253Z,15.80
2018-05-12T06:15:32.739Z,15.90
2018-05-12T06:18:01.479Z,15.90
2018-05-12T07:04:12.663Z,16.90
2018-05-12T07:06:41.385Z,16.90
2018-05-12T07:09:10.185Z,17.00
2018-05-12T07:11:39.738Z,17.10
2018-05-12T07:14:08.131Z,17.00
2018-05-12T07:22:46.437Z,17.30
2018-05-12T07:25:16.864Z,17.60
2018-05-12T07:27:45.614Z,17.60
2018-05-12T07:30:14.189Z,17.70
2018-05-12T07:35:51.084Z,18.10
2018-05-12T07:38:19.837Z,18.10
2018-05-12T07:40:49.332Z,18.30
2018-05-12T07:43:18.608Z,18.30
2018-05-12T07:45:47.482Z,18.40
2018-05-12T07:48:16.199Z,18.50
2018-05-12T07:50:44.967Z,18.80
2018-05-12T07:53:13.687Z,18.90
2018-05-12T07:55:43.184Z,19.20
2018-05-12T07:58:12.831Z,19.20
2018-05-12T08:00:41.576Z,19.30
2018-05-12T08:03:10.350Z,19.40
2018-05-12T08:05:39.068Z,19.50
2018-05-12T08:08:08.664Z,20.00
2018-05-12T08:10:37.177Z,20.00
2018-05-12T08:13:06.309Z,20.20
2018-05-12T08:15:35.091Z,20.30
2018-05-12T08:18:03.821Z,20.50
2018-05-12T08:20:32.721Z,20.60
2018-05-12T08:23:01.460Z,20.90
2018-05-12T08:25:30.177Z,21.00
2018-05-12T08:27:58.922Z,21.20
2018-05-12T08:30:27.644Z,21.20
2018-05-12T08:32:56.366Z,20.90
2018-05-12T08:35:25.857Z,21.40
2018-05-12T08:37:54.582Z,21.40
2018-05-12T08:40:23.045Z,21.70
2018-05-12T08:42:51.911Z,21.80
2018-05-12T08:45:20.630Z,22.00
2018-05-12T08:47:50.135Z,22.30
2018-05-12T08:50:19.899Z,22.60
2018-05-12T08:52:48.634Z,22.60
2018-05-12T08:55:17.538Z,22.80
2018-05-12T08:57:47.158Z,22.90
2018-05-12T09:00:15.902Z,22.90
2018-05-12T09:02:44.625Z,23.10
2018-05-12T09:05:13.370Z,23.20
2018-05-12T09:07:42.078Z,23.20
2018-05-12T09:10:12.466Z,23.40
2018-05-12T09:12:41.190Z,23.40
2018-05-12T09:15:09.928Z,23.60
2018-05-12T09:17:38.656Z,23.80
2018-05-12T09:20:07.368Z,23.80
2018-05-12T09:22:36.870Z,24.10
2018-05-12T09:25:05.615Z,24.10
2018-05-12T09:27:34.349Z,24.20
2018-05-12T09:30:03.523Z,24.30
2018-05-12T09:32:32.681Z,24.50
2018-05-12T09:35:01.418Z,24.50
2018-05-12T09:37:29.833Z,24.90
2018-05-12T09:39:58.562Z,25.10
2018-05-12T09:42:27.352Z,25.20
2018-05-12T09:44:57.025Z,25.50
2018-05-12T09:47:25.399Z,25.50
2018-05-12T09:49:54.195Z,25.50
2018-05-12T09:52:22.661Z,25.40
2018-05-12T09:54:51.546Z,25.50
2018-05-12T09:57:21.034Z,25.90
2018-05-12T09:59:49.761Z,25.90
2018-05-12T10:02:18.266Z,25.90
2018-05-12T10:04:46.716Z,26.10
2018-05-12T10:07:15.394Z,26.10
2018-05-12T10:09:43.849Z,26.30
2018-05-12T10:12:13.250Z,26.40
2018-05-12T10:14:41.707Z,26.40
2018-05-12T10:17:10.244Z,26.40
2018-05-12T10:22:38.518Z,26.40
2018-05-12T10:25:06.985Z,26.40
2018-05-12T10:27:36.189Z,26.80
2018-05-12T10:30:05.075Z,26.90
2018-05-12T10:32:34.286Z,27.10
2018-05-12T10:35:02.751Z,27.00
2018-05-12T10:37:31.982Z,27.40
2018-05-12T10:40:00.435Z,27.40
2018-05-12T10:42:29.637Z,27.40
2018-05-12T10:44:58.857Z,27.50
2018-05-12T10:47:28.269Z,27.50
2018-05-12T10:49:56.725Z,27.60
2018-05-12T10:52:25.955Z,27.80
2018-05-12T10:54:54.390Z,27.80
2018-05-12T10:57:22.842Z,27.90
2018-05-12T10:59:51.297Z,27.90
2018-05-12T11:02:19.758Z,27.70
2018-05-12T11:04:48.346Z,27.90
2018-05-12T11:07:17.495Z,27.50
2018-05-12T11:09:45.638Z,27.80
2018-05-12T11:12:14.818Z,28.30
2018-05-12T11:14:43.289Z,28.20
2018-05-12T11:17:12.160Z,28.40
2018-05-12T11:19:40.605Z,28.40
2018-05-12T11:22:09.049Z,28.50
2018-05-12T11:24:37.154Z,28.50
2018-05-12T11:27:05.665Z,28.70
2018-05-12T11:29:34.111Z,28.70
2018-05-12T11:32:02.578Z,28.60
2018-05-12T11:34:31.049Z,28.50
2018-05-12T11:37:00.377Z,28.40
2018-05-12T11:39:28.505Z,28.40
2018-05-12T11:41:57.745Z,28.30
2018-05-12T11:44:26.345Z,28.20
2018-05-12T11:46:55.631Z,28.30
2018-05-12T11:49:24.680Z,28.30
2018-05-12T11:51:53.138Z,28.30
2018-05-12T11:54:21.582Z,28.20
2018-05-12T11:56:50.026Z,28.30
2018-05-12T11:59:18.483Z,28.40
2018-05-12T12:01:46.927Z,28.70
2018-05-12T12:04:15.391Z,28.80
2018-05-12T12:06:44.620Z,29.00
2018-05-12T12:09:13.069Z,29.00
2018-05-12T12:11:42.285Z,29.20
2018-05-12T12:14:10.729Z,29.20
2018-05-12T12:16:38.946Z,29.30
2018-05-12T12:19:07.503Z,29.30
2018-05-12T12:21:36.713Z,29.30
2018-05-12T12:24:05.177Z,29.30
2018-05-12T12:26:34.498Z,29.20
2018-05-12T12:29:02.968Z,29.10
2018-05-12T12:31:32.169Z,29.30
2018-05-12T12:34:01.377Z,29.40
2018-05-12T12:36:29.846Z,29.40
2018-05-12T12:38:58.069Z,29.60
2018-05-12T12:41:26.317Z,29.40
2018-05-12T12:43:54.749Z,29.40
2018-05-12T12:46:23.177Z,29.40
2018-05-12T12:48:51.285Z,29.30
2018-05-12T12:51:19.712Z,29.50
2018-05-12T12:53:48.166Z,29.60
2018-05-12T12:56:16.956Z,29.50
2018-05-12T12:58:45.403Z,29.60
2018-05-12T13:01:13.857Z,29.70
2018-05-12T13:03:43.074Z,29.90
2018-05-12T13:06:11.976Z,29.80
2018-05-12T13:08:40.439Z,29.80
2018-05-12T13:11:08.890Z,29.80
2018-05-12T13:13:38.085Z,30.00
2018-05-12T13:16:06.252Z,29.90
2018-05-12T13:18:34.870Z,29.80
2018-05-12T13:21:04.071Z,30.00
2018-05-12T13:23:33.277Z,29.80
2018-05-12T13:26:01.767Z,29.70
2018-05-12T13:28:30.209Z,29.80
2018-05-12T13:30:58.685Z,29.90
2018-05-12T13:33:27.195Z,29.90
2018-05-12T13:35:55.434Z,30.00
2018-05-12T13:38:23.887Z,29.90
2018-05-12T13:40:52.315Z,29.50
2018-05-12T13:43:20.777Z,29.70
2018-05-12T13:45:49.200Z,29.70
2018-05-12T13:48:18.394Z,29.70
2018-05-12T13:50:47.282Z,29.70
2018-05-12T13:53:16.157Z,29.70
2018-05-12T13:55:44.620Z,29.70
2018-05-12T13:58:13.225Z,29.60
2018-05-12T14:00:41.648Z,29.80
2018-05-12T14:03:10.098Z,29.90
2018-05-12T14:52:21.763Z,29.30
2018-05-12T14:54:50.187Z,29.30
2018-05-12T14:57:19.264Z,29.10
2018-05-12T14:59:47.708Z,29.10
2018-05-12T15:02:16.143Z,28.90
2018-05-12T15:04:44.604Z,29.00
2018-05-12T15:07:13.063Z,29.20
2018-05-12T15:09:41.514Z,29.20
2018-05-12T15:12:10.726Z,28.90
2018-05-12T15:14:40.104Z,28.90
2018-05-12T15:17:08.586Z,28.60
2018-05-12T15:19:37.027Z,28.50
2018-05-12T15:22:05.465Z,28.50
2018-05-12T15:24:34.698Z,28.60
2018-05-12T15:27:02.813Z,28.50
2018-05-12T15:29:31.271Z,28.40
2018-05-12T15:31:59.701Z,28.40
2018-05-12T15:34:28.922Z,28.40
2018-05-12T15:36:57.384Z,28.40
2018-05-12T15:39:26.582Z,28.10
2018-05-12T15:41:55.077Z,28.10
2018-05-12T15:44:23.517Z,28.20
2018-05-12T15:46:52.017Z,28.00
2018-05-12T15:49:20.501Z,28.10
2018-05-12T15:51:49.699Z,28.00
2018-05-12T15:54:18.918Z,27.80
2018-05-12T15:56:47.246Z,27.80
2018-05-12T15:59:15.669Z,27.80
2018-05-12T16:01:44.872Z,27.30
2018-05-12T16:04:14.936Z,27.30
2018-05-12T16:06:43.985Z,27.30
2018-05-12T16:09:12.430Z,27.30
2018-05-12T16:11:40.875Z,27.30
2018-05-12T16:14:09.322Z,27.30
2018-05-12T16:16:38.529Z,27.30
2018-05-12T16:19:07.001Z,27.30
2018-05-12T16:21:36.197Z,27.10
2018-05-12T16:24:05.399Z,27.10
2018-05-12T16:26:34.624Z,27.10
2018-05-12T16:29:03.066Z,27.10
2018-05-12T16:31:31.534Z,26.90
2018-05-12T16:33:59.836Z,26.80
2018-05-12T16:36:29.046Z,26.80
2018-05-12T16:38:58.257Z,26.60
2018-05-12T16:41:26.358Z,26.60
2018-05-12T16:43:54.835Z,26.50
2018-05-12T16:46:23.825Z,26.40
2018-05-12T16:48:52.261Z,26.40
2018-05-12T16:51:21.154Z,26.20
2018-05-12T16:53:50.253Z,26.10
2018-05-12T16:56:19.491Z,26.10
2018-05-12T16:58:49.424Z,26.00
2018-05-12T17:01:17.893Z,26.00
2018-05-12T17:03:46.360Z,26.00
2018-05-12T17:06:14.473Z,26.00
2018-05-12T17:08:43.166Z,25.90
2018-05-12T17:11:11.623Z,25.80
2018-05-12T17:13:40.863Z,25.70
2018-05-12T17:16:09.326Z,25.70
2018-05-12T17:18:37.802Z,25.60
2018-05-12T17:21:06.309Z,25.50
2018-05-12T17:23:34.818Z,25.50
2018-05-12T17:26:02.957Z,25.50
2018-05-12T17:28:31.435Z,25.40
2018-05-12T17:30:59.995Z,25.40
2018-05-12T17:33:28.684Z,25.40
2018-05-12T17:35:57.142Z,25.30
2018-05-12T17:38:25.600Z,25.20
2018-05-12T17:40:54.079Z,25.30
2018-05-12T17:43:23.307Z,25.20
2018-05-12T17:45:52.842Z,25.20
2018-05-12T17:48:21.291Z,25.10
2018-05-12T17:50:49.729Z,25.10
2018-05-12T17:53:17.860Z,25.00
2018-05-12T17:55:46.399Z,25.00
2018-05-12T17:58:15.601Z,24.80
2018-05-12T18:00:44.340Z,24.70
2018-05-12T18:03:14.746Z,24.70
2018-05-12T18:05:42.886Z,24.60
2018-05-12T18:08:12.589Z,24.40
2018-05-12T18:10:41.337Z,24.40
2018-05-12T18:13:09.785Z,24.40
2018-05-12T18:15:38.992Z,24.40
2018-05-12T18:18:07.138Z,24.30
2018-05-12T18:20:35.658Z,24.30
2018-05-12T18:23:03.821Z,24.20
2018-05-12T18:25:32.544Z,24.10
2018-05-12T18:28:00.982Z,24.10
2018-05-12T18:30:29.718Z,24.00
2018-05-12T18:32:58.432Z,24.00
2018-05-12T18:35:27.194Z,23.90
2018-05-12T18:37:55.906Z,23.80
2018-05-12T18:40:24.856Z,23.70
2018-05-12T18:42:54.357Z,23.70
2018-05-12T18:45:23.845Z,23.60
2018-05-12T18:47:52.617Z,23.60
2018-05-12T18:50:21.341Z,23.50
2018-05-12T18:52:50.819Z,23.40
2018-05-12T18:55:19.554Z,23.40
2018-05-12T18:57:48.290Z,23.40
2018-05-12T19:00:17.032Z,23.40
2018-05-12T19:02:45.413Z,23.30
2018-05-12T19:05:13.789Z,23.30
2018-05-12T19:07:42.510Z,23.30
2018-05-12T19:10:10.889Z,23.20
2018-05-12T19:12:39.641Z,23.20
2018-05-12T19:15:08.353Z,23.20
2018-05-12T19:17:37.106Z,23.10
2018-05-12T19:20:05.933Z,23.00
2018-05-12T19:22:34.739Z,23.00
2018-05-12T19:25:03.275Z,23.00
2018-05-12T19:27:32.754Z,22.80
2018-05-12T19:30:01.475Z,22.80
2018-05-12T19:32:30.208Z,22.70
2018-05-12T19:34:58.935Z,22.70
2018-05-12T19:37:28.491Z,22.70
2018-05-12T19:39:56.875Z,22.60
2018-05-12T19:42:25.596Z,22.50
2018-05-12T19:44:54.333Z,22.40
2018-05-12T19:47:23.051Z,22.40
2018-05-12T19:49:51.800Z,22.30
2018-05-12T19:52:20.512Z,22.30
2018-05-12T19:54:49.969Z,22.30
2018-05-12T19:57:19.459Z,22.20
2018-05-12T19:59:48.954Z,22.20
2018-05-12T20:02:17.686Z,22.20
2018-05-12T20:04:46.405Z,22.20
2018-05-12T20:07:15.146Z,22.10
2018-05-12T20:09:44.676Z,22.00
2018-05-12T20:12:13.584Z,22.00
2018-05-12T20:14:42.304Z,22.00
2018-05-12T20:17:11.047Z,21.90
2018-05-12T20:19:39.776Z,21.90
2018-05-12T20:22:08.556Z,21.80
2018-05-12T20:24:38.173Z,21.70
2018-05-12T20:27:06.878Z,21.60
2018-05-12T20:29:36.362Z,21.70
2018-05-12T20:32:05.092Z,21.60
2018-05-12T20:34:34.601Z,21.60
2018-05-12T20:37:04.253Z,21.60
2018-05-12T20:39:33.077Z,21.60
2018-05-12T20:42:01.646Z,21.60
2018-05-12T20:44:30.389Z,21.60
2018-05-12T20:46:59.118Z,21.50
2018-05-12T20:49:27.845Z,21.50
2018-05-12T20:51:57.401Z,21.40
2018-05-12T20:54:26.117Z,21.40
2018-05-12T20:56:54.931Z,21.30
2018-05-12T20:59:24.422Z,21.30
2018-05-12T21:01:53.254Z,21.30
2018-05-12T21:04:21.966Z,21.30
2018-05-12T21:06:50.811Z,21.30
2018-05-12T21:09:19.534Z,21.20
2018-05-12T21:11:48.279Z,21.20
2018-05-12T21:14:17.863Z,21.20
2018-05-12T21:16:46.685Z,21.20
2018-05-12T21:19:16.184Z,21.20
2018-05-12T21:21:45.687Z,21.10
2018-05-12T21:24:15.192Z,21.10
2018-05-12T21:26:44.666Z,21.10
2018-05-12T21:29:13.388Z,21.10
2018-05-12T21:31:42.887Z,21.00
2018-05-12T21:34:12.361Z,21.00
2018-05-12T21:36:41.089Z,21.00
2018-05-12T21:39:10.570Z,20.90
2018-05-12T21:41:39.068Z,20.90
2018-05-12T21:44:07.794Z,20.90
2018-05-12T21:46:36.505Z,20.80
2018-05-12T21:49:04.939Z,20.80
2018-05-12T21:51:34.419Z,20.70
2018-05-12T21:54:03.143Z,20.70
2018-05-12T21:56:31.915Z,20.70
2018-05-12T21:59:01.481Z,20.60
2018-05-12T22:01:30.334Z,20.60
2018-05-12T22:03:59.053Z,20.60
2018-05-12T22:06:27.771Z,20.50
2018-05-12T22:08:56.485Z,20.50
2018-05-12T22:11:25.980Z,20.40
2018-05-12T22:13:55.483Z,20.40
2018-05-12T22:16:24.957Z,20.40
2018-05-12T22:18:54.143Z,20.40
2018-05-12T22:21:22.869Z,20.40
2018-05-12T22:23:51.598Z,20.30
2018-05-12T22:26:21.218Z,20.30
2018-05-12T22:28:49.966Z,20.30
2018-05-12T22:31:19.454Z,20.10
2018-05-12T22:33:48.188Z,20.10
2018-05-12T22:36:16.917Z,20.10
2018-05-12T22:38:45.765Z,20.10
2018-05-12T22:41:14.551Z,20.00
2018-05-12T22:43:43.294Z,19.90
2018-05-12T22:46:12.031Z,19.90
2018-05-12T22:48:40.799Z,19.80
2018-05-12T22:51:10.326Z,19.80
2018-05-12T22:53:39.058Z,19.80
2018-05-12T22:56:07.784Z,19.70
2018-05-12T22:58:37.313Z,19.70
2018-05-12T23:01:05.740Z,19.70
2018-05-12T23:03:34.933Z,19.70
2018-05-12T23:06:03.374Z,19.60
2018-05-12T23:08:33.042Z,19.60
2018-05-12T23:11:04.069Z,19.50
2018-05-12T23:13:32.792Z,19.50
2018-05-12T23:16:02.392Z,19.40
2018-05-12T23:18:31.928Z,19.40
2018-05-12T23:21:00.796Z,19.30
2018-05-12T23:23:30.265Z,19.30
2018-05-12T23:25:58.977Z,19.30
2018-05-12T23:28:28.508Z,19.20
2018-05-12T23:30:57.735Z,19.20
2018-05-12T23:33:26.261Z,19.20
2018-05-12T23:35:55.762Z,19.10
2018-05-12T23:38:25.262Z,19.10
2018-05-12T23:40:53.998Z,19.10
2018-05-12T23:43:22.731Z,19.00
2018-05-12T23:45:51.468Z,19.00
2018-05-12T23:48:20.173Z,19.00
2018-05-12T23:50:48.922Z,19.00
2018-05-12T23:53:18.419Z,18.80
2018-05-12T23:55:47.906Z,18.80
2018-05-12T23:58:16.707Z,18.80
